Time;durP1;ratioP1;P1;durP2;ratioP2;P2;SDS_P1;SDS_P2;PMS_P1;PMS_P2;Temp;Humidity;BMP_temperature;BMP_pressure;BME280_temperature;BME280_humidity;BME280_pressure;Samples;Min_cycle;Max_cycle;Signal;HPM_P1;HPM_P2
2023/05/04 00:01:17;;;;;;;;;5.80;5.60;;;;;7.73;57.52;100595.13;5115391;28;9130;-86
2023/05/04 00:03:44;;;;;;;;;2.20;2.20;;;;;7.67;57.40;100589.34;5115472;28;8924;-86
2023/05/04 00:06:13;;;;;;;;;7.40;5.60;;;;;7.63;57.59;100597.50;5115286;28;8820;-86
2023/05/04 00:08:41;;;;;;;;;10.00;10.00;;;;;7.57;57.83;100588.13;5115325;28;8840;-86
2023/05/04 00:11:08;;;;;;;;;10.40;10.20;;;;;7.52;57.57;100590.22;5115322;28;8816;-86
2023/05/04 00:13:36;;;;;;;;;9.60;8.60;;;;;7.49;57.77;100590.38;5115560;28;8847;-86
2023/05/04 00:16:04;;;;;;;;;7.40;7.00;;;;;7.45;57.48;100575.59;5115255;28;9225;-86
2023/05/04 00:18:31;;;;;;;;;8.60;8.60;;;;;7.42;57.71;100566.97;5114926;28;8836;-86
2023/05/04 00:20:59;;;;;;;;;1.00;0.00;;;;;7.38;58.13;100573.38;5115229;28;8832;-86
2023/05/04 00:23:27;;;;;;;;;9.20;7.80;;;;;7.37;58.14;100572.53;5115478;28;8851;-86
2023/05/04 00:25:55;;;;;;;;;6.20;4.00;;;;;7.37;58.00;100575.19;5115174;28;8862;-86
2023/05/04 00:28:23;;;;;;;;;7.80;7.00;;;;;7.35;58.25;100569.09;5115393;28;8852;-86
2023/05/04 00:30:51;;;;;;;;;3.40;1.80;;;;;7.35;58.06;100570.91;5115107;28;8863;-86
2023/05/04 00:33:19;;;;;;;;;7.40;7.00;;;;;7.31;57.85;100569.34;5115400;28;8827;-86
2023/05/04 00:35:47;;;;;;;;;5.20;5.20;;;;;7.28;58.74;100564.25;5115117;28;8916;-86
2023/05/04 00:38:16;;;;;;;;;9.20;9.20;;;;;7.25;58.45;100561.75;5115313;28;8868;-86
2023/05/04 00:40:43;;;;;;;;;7.00;6.40;;;;;7.23;58.03;100566.28;5114936;28;8839;-86
2023/05/04 00:43:13;;;;;;;;;4.00;1.00;;;;;7.19;58.05;100567.41;5115177;28;8838;-86
2023/05/04 00:45:41;;;;;;;;;4.80;4.00;;;;;7.19;58.38;100560.31;5117297;28;8840;-85
2023/05/04 00:48:09;;;;;;;;;7.00;6.80;;;;;7.19;58.16;100562.13;5116904;28;8836;-85
2023/05/04 00:50:37;;;;;;;;;10.80;9.40;;;;;7.18;58.58;100549.78;5116444;28;8824;-86
2023/05/04 00:53:05;;;;;;;;;10.00;9.00;;;;;7.17;58.12;100551.59;5119100;28;8848;-85
2023/05/04 00:55:32;;;;;;;;;6.60;6.00;;;;;7.16;58.80;100554.31;5120595;28;8920;-86
2023/05/04 00:58:00;;;;;;;;;7.40;7.00;;;;;7.15;58.32;100550.84;5120664;28;8831;-86
2023/05/04 01:00:28;;;;;;;;;9.20;8.60;;;;;7.15;58.38;100547.31;5120232;28;8844;-86
2023/05/04 01:02:56;;;;;;;;;6.40;6.40;;;;;7.13;58.60;100538.63;5120228;28;8844;-85
2023/05/04 01:05:24;;;;;;;;;7.80;7.40;;;;;7.11;58.41;100544.00;5119223;28;8847;-86
2023/05/04 01:07:51;;;;;;;;;9.00;6.40;;;;;7.08;58.63;100538.88;5119304;28;8835;-86
2023/05/04 01:10:19;;;;;;;;;7.00;7.00;;;;;7.07;58.57;100531.88;5119078;28;9217;-86
2023/05/04 01:12:48;;;;;;;;;8.20;8.20;;;;;7.05;58.41;100538.19;5119588;28;8897;-86
2023/05/04 01:15:16;;;;;;;;;7.40;6.40;;;;;7.03;58.72;100535.63;5122175;28;8828;-86
2023/05/04 01:17:43;;;;;;;;;3.00;0.80;;;;;7.02;58.92;100535.69;5122672;28;8999;-86
2023/05/04 01:20:11;;;;;;;;;7.00;6.00;;;;;7.00;58.34;100527.88;5122562;28;8828;-86
2023/05/04 01:22:39;;;;;;;;;6.00;6.00;;;;;6.97;58.73;100529.81;5122168;28;8832;-85
2023/05/04 01:25:07;;;;;;;;;8.20;6.60;;;;;6.95;58.71;100524.59;5122522;28;9531;-86
2023/05/04 01:27:35;;;;;;;;;9.00;6.40;;;;;6.93;58.96;100530.91;5122094;28;8828;-85
2023/05/04 01:30:02;;;;;;;;;6.00;6.00;;;;;6.90;59.21;100529.28;5122890;28;8828;-85
2023/05/04 01:32:30;;;;;;;;;6.80;6.80;;;;;6.88;59.05;100527.66;5121864;28;8897;-85
2023/05/04 01:34:58;;;;;;;;;6.80;6.00;;;;;6.84;58.87;100526.13;5124483;28;8832;-85
2023/05/04 01:37:26;;;;;;;;;6.20;6.20;;;;;6.82;59.13;100530.66;5125244;28;8883;-86
2023/05/04 01:39:54;;;;;;;;;6.80;6.00;;;;;6.77;59.16;100528.28;5124673;28;8871;-86
2023/05/04 01:42:21;;;;;;;;;7.60;6.00;;;;;6.74;59.37;100532.88;5125291;28;8928;-86
2023/05/04 01:44:49;;;;;;;;;5.80;5.60;;;;;6.69;59.18;100532.28;5120063;28;8836;-86
2023/05/04 01:47:16;;;;;;;;;6.20;6.00;;;;;6.66;59.56;100529.81;5118446;28;8909;-86
2023/05/04 01:49:44;;;;;;;;;6.20;6.20;;;;;6.63;59.36;100529.94;5118020;28;8823;-86
2023/05/04 01:52:12;;;;;;;;;5.40;4.40;;;;;6.60;58.99;100530.13;5118321;28;8840;-86
2023/05/04 01:54:39;;;;;;;;;4.00;4.00;;;;;6.57;59.28;100523.22;5117825;28;8836;-86
2023/05/04 01:57:07;;;;;;;;;3.40;3.40;;;;;6.56;59.70;100528.56;5117783;28;8844;-86
2023/05/04 01:59:35;;;;;;;;;7.40;6.40;;;;;6.56;59.34;100525.91;5118278;28;8890;-86
2023/05/04 02:02:03;;;;;;;;;9.00;6.40;;;;;6.55;59.30;100525.09;5117951;28;8834;-86
2023/05/04 02:04:31;;;;;;;;;7.00;5.60;;;;;6.55;59.22;100525.09;5117369;28;8824;-86
2023/05/04 02:06:58;;;;;;;;;6.00;6.00;;;;;6.55;59.14;100524.22;5118171;28;8859;-86
2023/05/04 02:09:26;;;;;;;;;6.00;4.40;;;;;6.53;59.45;100520.81;5118162;28;8874;-86
2023/05/04 02:11:54;;;;;;;;;5.20;4.80;;;;;6.51;59.11;100530.63;5118215;28;8831;-86
2023/05/04 02:14:21;;;;;;;;;6.00;5.60;;;;;6.50;59.87;100527.13;5119390;28;8835;-86
2023/05/04 02:16:49;;;;;;;;;6.40;6.40;;;;;6.48;59.37;100522.84;5120538;28;8932;-86
2023/05/04 02:19:17;;;;;;;;;4.00;4.00;;;;;6.48;59.39;100528.13;5118128;28;8870;-86
2023/05/04 02:21:44;;;;;;;;;5.20;5.20;;;;;6.47;59.17;100526.44;5117246;28;8840;-86
2023/05/04 02:24:12;;;;;;;;;6.60;6.20;;;;;6.47;59.57;100521.13;5118016;28;8847;-86
2023/05/04 02:26:40;;;;;;;;;5.60;4.00;;;;;6.47;59.74;100526.44;5117484;28;8844;-86
2023/05/04 02:29:08;;;;;;;;;6.40;6.00;;;;;6.47;59.24;100523.78;5117284;28;8856;-86
2023/05/04 02:31:35;;;;;;;;;8.20;6.60;;;;;6.44;59.85;100526.59;5117616;28;8860;-86
2023/05/04 02:34:03;;;;;;;;;7.80;6.00;;;;;6.40;59.76;100515.34;5117009;28;8850;-86
2023/05/04 02:36:31;;;;;;;;;9.40;7.80;;;;;6.36;60.11;100519.06;5117390;28;8870;-86
2023/05/04 02:38:59;;;;;;;;;7.40;6.60;;;;;6.31;60.20;100514.97;5117321;28;8958;-86
2023/05/04 02:41:27;;;;;;;;;5.20;4.00;;;;;6.25;60.13;100512.63;5116817;28;8835;-86
2023/05/04 02:43:54;;;;;;;;;6.00;6.00;;;;;6.18;60.21;100517.41;5117509;28;8839;-86
2023/05/04 02:46:24;;;;;;;;;4.00;4.00;;;;;6.10;60.71;100510.78;5116829;28;8843;-86
2023/05/04 02:48:51;;;;;;;;;4.40;4.40;;;;;6.06;60.48;100517.19;5116736;28;8940;-86
2023/05/04 02:51:19;;;;;;;;;9.40;8.60;;;;;6.02;60.21;100518.28;5116853;28;8824;-86
2023/05/04 02:53:46;;;;;;;;;3.80;3.80;;;;;6.01;60.31;100516.56;5116421;28;8836;-86
2023/05/04 02:56:14;;;;;;;;;6.00;4.00;;;;;6.01;60.87;100513.94;5116371;28;8824;-86
2023/05/04 02:58:42;;;;;;;;;7.40;5.20;;;;;6.01;60.57;100516.56;5117076;28;8847;-86
2023/05/04 03:01:10;;;;;;;;;6.40;5.20;;;;;6.02;60.26;100513.84;5116544;28;8840;-86
2023/05/04 03:03:39;;;;;;;;;8.20;6.80;;;;;6.04;60.43;100517.25;5116270;28;8839;-86
2023/05/04 03:06:06;;;;;;;;;6.00;6.00;;;;;6.05;60.26;100513.69;5115973;28;8912;-86
2023/05/04 03:08:34;;;;;;;;;3.20;3.00;;;;;6.08;60.54;100517.97;5116049;28;8836;-86
2023/05/04 03:11:02;;;;;;;;;8.60;6.80;;;;;6.07;60.44;100510.97;5116345;28;8844;-86
2023/05/04 03:13:30;;;;;;;;;6.40;6.00;;;;;6.06;60.53;100514.56;5116216;28;8854;-86
2023/05/04 03:15:57;;;;;;;;;7.40;7.00;;;;;6.04;60.82;100506.69;5115570;28;8840;-86
2023/05/04 03:18:25;;;;;;;;;7.80;7.40;;;;;6.01;60.55;100506.00;5115936;28;8920;-86
2023/05/04 03:20:52;;;;;;;;;4.40;4.00;;;;;5.94;60.78;100509.88;5115691;28;8836;-86
2023/05/04 03:23:20;;;;;;;;;5.20;4.40;;;;;5.88;60.82;100507.56;5115918;28;8835;-86
2023/05/04 03:25:48;;;;;;;;;1.00;1.00;;;;;5.84;61.29;100500.75;5116093;28;9596;-86
2023/05/04 03:28:16;;;;;;;;;6.60;6.40;;;;;5.80;60.96;100492.09;5116157;28;8832;-86
2023/05/04 03:30:43;;;;;;;;;6.80;6.00;;;;;5.80;61.36;100499.16;5116044;28;8824;-86
2023/05/04 03:33:11;;;;;;;;;8.20;7.00;;;;;5.78;60.89;100498.38;5115681;28;8908;-86
2023/05/04 03:35:38;;;;;;;;;6.20;6.20;;;;;5.79;60.60;100500.97;5115980;28;8881;-86
2023/05/04 03:38:06;;;;;;;;;6.60;6.00;;;;;5.80;61.17;100488.59;5116052;28;8846;-86
2023/05/04 03:40:34;;;;;;;;;8.60;7.80;;;;;5.82;61.14;100489.38;5115461;28;8852;-86
2023/05/04 03:43:01;;;;;;;;;7.80;6.60;;;;;5.83;61.14;100488.44;5115565;28;8832;-86
2023/05/04 03:45:29;;;;;;;;;6.00;6.00;;;;;5.84;61.18;100491.00;5115760;28;8912;-86
2023/05/04 03:47:57;;;;;;;;;8.80;6.20;;;;;5.83;60.46;100483.16;5116124;28;8848;-86
2023/05/04 03:50:24;;;;;;;;;6.00;6.00;;;;;5.81;61.09;100490.31;5115818;28;8851;-86
2023/05/04 03:52:52;;;;;;;;;8.20;6.60;;;;;5.82;61.06;100489.38;5116333;28;8925;-86
2023/05/04 03:55:19;;;;;;;;;10.00;9.60;;;;;5.79;60.87;100484.22;5115476;28;8850;-86
2023/05/04 03:57:47;;;;;;;;;6.40;4.80;;;;;5.78;60.68;100475.41;5116177;28;8839;-86
2023/05/04 04:00:15;;;;;;;;;7.80;6.80;;;;;5.76;60.89;100477.31;5115968;28;8840;-86
2023/05/04 04:02:43;;;;;;;;;6.80;6.60;;;;;5.76;60.73;100471.19;5115894;28;8855;-86
2023/05/04 04:05:11;;;;;;;;;7.00;7.00;;;;;5.76;60.98;100468.53;5116287;28;9509;-86
2023/05/04 04:07:38;;;;;;;;;10.00;7.00;;;;;5.75;61.03;100472.94;5115515;28;8840;-86
2023/05/04 04:10:06;;;;;;;;;5.20;3.60;;;;;5.78;60.78;100471.94;5114601;28;8828;-86
2023/05/04 04:12:34;;;;;;;;;4.40;4.40;;;;;5.79;61.36;100473.66;5115813;28;8832;-86
2023/05/04 04:15:02;;;;;;;;;5.40;5.20;;;;;5.81;60.98;100477.97;5115399;28;8851;-86
2023/05/04 04:17:30;;;;;;;;;6.20;5.20;;;;;5.84;60.97;100471.66;5115575;28;8936;-86
2023/05/04 04:19:58;;;;;;;;;6.40;6.00;;;;;5.86;60.95;100475.91;5115687;28;8901;-86
2023/05/04 04:22:26;;;;;;;;;6.00;5.60;;;;;5.88;60.84;100468.78;5115352;28;9589;-86
2023/05/04 04:24:53;;;;;;;;;11.80;8.60;;;;;5.92;60.58;100466.84;5115186;28;8847;-86
2023/05/04 04:27:21;;;;;;;;;10.40;8.20;;;;;5.95;60.54;100466.66;5116681;28;8851;-86
2023/05/04 04:29:49;;;;;;;;;9.20;7.40;;;;;5.98;60.40;100466.50;5119628;28;8861;-86
2023/05/04 04:32:17;;;;;;;;;3.40;3.20;;;;;6.01;60.89;100467.19;5119146;28;8816;-86
2023/05/04 04:34:44;;;;;;;;;5.20;4.80;;;;;6.06;60.55;100466.97;5119078;28;8840;-86
2023/05/04 04:37:12;;;;;;;;;6.40;6.00;;;;;6.09;60.90;100465.03;5118868;28;8851;-86
2023/05/04 04:39:40;;;;;;;;;4.00;4.00;;;;;6.13;60.70;100470.97;5118849;28;8839;-86
2023/05/04 04:42:07;;;;;;;;;9.00;7.80;;;;;6.16;60.44;100463.72;5119204;28;8836;-86
2023/05/04 04:44:35;;;;;;;;;9.00;7.40;;;;;6.19;60.80;100465.34;5119172;28;8840;-86
2023/05/04 04:47:02;;;;;;;;;9.60;9.00;;;;;6.22;60.07;100467.84;5118572;28;8980;-86
2023/05/04 04:49:30;;;;;;;;;9.20;9.20;;;;;6.25;60.05;100475.63;5118102;28;8889;-86
2023/05/04 04:51:58;;;;;;;;;7.40;7.40;;;;;6.28;59.94;100473.66;5118761;28;8827;-86
2023/05/04 04:54:27;;;;;;;;;9.40;7.80;;;;;6.33;60.01;100476.06;5118195;28;8831;-86
2023/05/04 04:56:55;;;;;;;;;9.20;7.00;;;;;6.39;59.94;100473.94;5118127;28;8917;-86
2023/05/04 04:59:23;;;;;;;;;8.80;8.80;;;;;6.46;59.71;100477.09;5118264;28;8836;-86
2023/05/04 05:01:51;;;;;;;;;11.20;11.20;;;;;6.53;59.98;100481.13;5118237;28;8836;-86
2023/05/04 05:04:20;;;;;;;;;9.20;9.20;;;;;6.62;59.75;100475.31;5118763;28;8870;-86
2023/05/04 05:06:48;;;;;;;;;9.20;8.20;;;;;6.70;59.40;100473.97;5118219;28;8843;-86
2023/05/04 05:09:16;;;;;;;;;10.80;9.40;;;;;6.79;59.79;100480.53;5118407;28;8852;-87
2023/05/04 05:11:43;;;;;;;;;6.20;6.00;;;;;6.89;59.09;100468.50;5118378;28;8882;-86
2023/05/04 05:14:11;;;;;;;;;6.80;6.40;;;;;6.98;59.47;100471.47;5122895;28;8840;-86
2023/05/04 05:16:39;;;;;;;;;7.00;7.00;;;;;7.11;58.91;100466.31;5123104;28;8847;-86
2023/05/04 05:19:07;;;;;;;;;9.20;9.20;;;;;7.20;58.97;100465.81;5122601;28;8866;-86
2023/05/04 05:21:35;;;;;;;;;5.60;4.80;;;;;7.34;58.52;100464.06;5122614;28;8856;-86
2023/05/04 05:24:02;;;;;;;;;6.00;6.00;;;;;7.45;58.44;100458.16;5121681;28;8936;-86
2023/05/04 05:26:30;;;;;;;;;12.00;11.60;;;;;7.54;58.44;100450.53;5121786;28;8844;-85
2023/05/04 05:28:58;;;;;;;;;7.80;7.00;;;;;7.65;58.26;100450.72;5121228;28;8832;-86
2023/05/04 05:31:26;;;;;;;;;8.00;7.20;;;;;7.77;58.18;100450.84;5121460;28;8852;-85
2023/05/04 05:33:54;;;;;;;;;9.60;9.00;;;;;7.91;58.95;100448.22;5121873;28;8851;-86
2023/05/04 05:36:22;;;;;;;;;9.00;8.60;;;;;7.98;57.93;100454.84;5122173;28;8836;-86
2023/05/04 05:38:49;;;;;;;;;6.80;6.80;;;;;8.00;58.03;100458.25;5122350;28;8859;-85
2023/05/04 05:41:17;;;;;;;;;6.80;5.60;;;;;8.01;58.20;100460.00;5122763;28;8851;-86
2023/05/04 05:43:45;;;;;;;;;10.00;8.20;;;;;8.06;57.98;100465.84;5127504;28;8855;-85
2023/05/04 05:46:13;;;;;;;;;12.20;9.80;;;;;8.14;57.93;100455.63;5128543;28;8832;-85
2023/05/04 05:48:41;;;;;;;;;7.80;7.80;;;;;8.28;57.92;100453.00;5115975;28;8983;-85
2023/05/04 05:51:09;;;;;;;;;9.80;9.20;;;;;8.46;57.49;100454.53;5114614;28;8843;-85
2023/05/04 05:53:37;;;;;;;;;15.60;15.00;;;;;8.61;57.60;100461.53;5113454;28;9221;-85
2023/05/04 05:56:05;;;;;;;;;15.00;11.60;;;;;8.78;57.34;100460.44;5114177;28;9612;-85
2023/05/04 05:58:33;;;;;;;;;14.60;13.80;;;;;8.86;57.35;100448.38;5115802;28;8960;-85
2023/05/04 06:01:00;;;;;;;;;15.40;15.00;;;;;8.93;57.24;100447.03;5116230;28;9513;-85
2023/05/04 06:03:28;;;;;;;;;14.80;12.80;;;;;9.02;57.14;100453.53;5116029;28;8847;-85
2023/05/04 06:05:56;;;;;;;;;10.40;10.00;;;;;9.15;56.92;100449.13;5115875;28;9216;-86
2023/05/04 06:08:24;;;;;;;;;10.40;10.00;;;;;9.28;56.30;100458.00;5115479;28;8986;-86
2023/05/04 06:10:53;;;;;;;;;12.60;12.00;;;;;9.46;56.39;100433.72;5115186;28;8836;-86
2023/05/04 06:13:21;;;;;;;;;11.60;11.60;;;;;9.70;56.27;100434.69;5114959;28;8871;-86
2023/05/04 06:15:48;;;;;;;;;7.40;7.40;;;;;9.92;55.74;100437.59;5115172;28;8840;-86
2023/05/04 06:18:16;;;;;;;;;11.00;10.00;;;;;10.15;55.58;100430.69;5114381;28;8957;-86
2023/05/04 06:20:44;;;;;;;;;3.00;3.00;;;;;10.38;55.31;100422.78;5114291;28;8839;-86
2023/05/04 06:23:13;;;;;;;;;9.75;9.75;;;;;10.62;54.83;100413.03;5113808;28;8916;-86
2023/05/04 06:25:41;;;;;;;;;12.25;9.00;;;;;10.85;54.36;100409.56;5113676;28;8857;-86
2023/05/04 06:28:08;;;;;;;;;9.00;8.50;;;;;11.05;54.15;100408.94;5113660;28;8844;-86
2023/05/04 06:30:36;;;;;;;;;9.50;9.50;;;;;11.24;53.77;100405.75;5112955;28;8836;-86
2023/05/04 06:33:05;;;;;;;;;8.50;6.50;;;;;11.40;53.82;100406.31;5113922;28;8933;-86
2023/05/04 06:35:33;;;;;;;;;10.50;9.00;;;;;11.54;53.56;100401.63;5112848;28;8922;-86
2023/05/04 06:38:01;;;;;;;;;8.00;7.00;;;;;11.69;53.50;100399.66;5112940;28;8862;-86
2023/05/04 06:40:29;;;;;;;;;5.50;4.50;;;;;11.85;53.29;100395.69;5113559;28;8840;-86
2023/05/04 06:42:57;;;;;;;;;6.00;6.00;;;;;12.06;53.08;100396.66;5113281;28;8842;-86
2023/05/04 06:45:25;;;;;;;;;6.25;6.00;;;;;12.26;52.35;100396.81;5114259;28;8824;-86
2023/05/04 06:47:52;;;;;;;;;6.75;6.00;;;;;12.44;52.67;100387.31;5114472;28;8835;-86
2023/05/04 06:50:22;;;;;;;;;6.50;6.50;;;;;12.62;52.54;100385.00;5113388;28;8839;-86
2023/05/04 06:52:50;;;;;;;;;9.00;9.00;;;;;12.78;52.05;100380.97;5114540;28;8906;-86
2023/05/04 06:55:18;;;;;;;;;8.00;8.00;;;;;12.93;52.28;100378.84;5114686;28;8847;-86
2023/05/04 06:57:46;;;;;;;;;8.50;7.00;;;;;13.08;52.13;100380.28;5114748;28;8852;-86
2023/05/04 07:00:14;;;;;;;;;9.75;9.75;;;;;13.18;51.80;100384.75;5114767;28;8843;-86
2023/05/04 07:02:42;;;;;;;;;9.50;9.50;;;;;13.30;51.57;100374.84;5114196;28;8860;-86
2023/05/04 07:05:10;;;;;;;;;6.50;6.25;;;;;13.43;51.20;100386.22;5113519;28;8966;-86
2023/05/04 07:07:38;;;;;;;;;11.50;11.50;;;;;13.52;51.50;100382.75;5114009;28;8843;-86
2023/05/04 07:10:07;;;;;;;;;11.50;10.50;;;;;13.61;51.31;100381.97;5113493;28;8847;-86
2023/05/04 07:12:34;;;;;;;;;14.50;10.00;;;;;13.69;51.41;100379.50;5113375;28;8838;-86
2023/05/04 07:15:02;;;;;;;;;9.00;9.00;;;;;13.77;51.46;100377.00;5113349;28;8840;-86
2023/05/04 07:17:30;;;;;;;;;12.50;11.00;;;;;13.86;51.40;100371.72;5113971;28;8847;-86
2023/05/04 07:19:58;;;;;;;;;10.50;9.50;;;;;13.95;51.20;100376.28;5111804;28;8848;-86
2023/05/04 07:22:26;;;;;;;;;9.25;8.00;;;;;14.04;50.96;100370.13;5112806;28;8974;-86
2023/05/04 07:24:55;;;;;;;;;12.00;9.00;;;;;14.16;50.98;100369.06;5110749;28;8848;-86
2023/05/04 07:27:23;;;;;;;;;12.75;10.00;;;;;14.27;51.10;100365.47;5111446;28;8847;-86
2023/05/04 07:29:51;;;;;;;;;9.25;9.25;;;;;14.41;50.71;100359.75;5111682;28;9005;-86
2023/05/04 07:32:19;;;;;;;;;9.50;8.50;;;;;14.56;50.74;100359.22;5112631;28;8974;-86
2023/05/04 07:34:48;;;;;;;;;10.00;9.00;;;;;14.72;50.85;100356.03;5112838;28;8896;-86
2023/05/04 07:37:15;;;;;;;;;7.00;7.00;;;;;14.91;50.95;100351.53;5112678;28;8839;-86
2023/05/04 07:39:43;;;;;;;;;8.50;8.50;;;;;15.10;50.41;100358.75;5113372;28;8986;-86
2023/05/04 07:42:11;;;;;;;;;12.00;9.75;;;;;15.27;49.94;100352.69;5113062;28;8848;-86
2023/05/04 07:44:40;;;;;;;;;9.50;9.00;;;;;15.48;49.82;100356.91;5112798;28;8836;-86
2023/05/04 07:47:08;;;;;;;;;8.00;7.00;;;;;15.65;49.35;100347.31;5112749;28;8832;-86
2023/05/04 07:49:36;;;;;;;;;9.50;9.50;;;;;15.83;49.29;100348.25;5110735;28;8862;-86
2023/05/04 07:52:04;;;;;;;;;9.00;8.00;;;;;16.05;49.09;100350.56;5108931;28;8839;-86
2023/05/04 07:54:32;;;;;;;;;10.00;9.50;;;;;16.28;48.69;100345.56;5109165;28;8852;-86
2023/05/04 07:57:00;;;;;;;;;9.25;8.00;;;;;16.48;48.12;100347.16;5109087;28;8851;-86
2023/05/04 07:59:28;;;;;;;;;9.00;9.00;;;;;16.65;48.69;100340.16;5110503;28;8851;-86
2023/05/04 08:01:56;;;;;;;;;7.00;7.00;;;;;16.81;48.42;100338.50;5112116;28;8863;-86
2023/05/04 08:04:24;;;;;;;;;8.00;7.50;;;;;16.99;48.00;100333.09;5114984;28;8851;-86
2023/05/04 08:06:51;;;;;;;;;8.00;7.50;;;;;17.14;47.66;100337.81;5116629;28;9585;-85
2023/05/04 08:09:19;;;;;;;;;9.75;9.25;;;;;17.32;47.58;100335.94;5117565;28;8862;-86
2023/05/04 08:11:47;;;;;;;;;9.00;7.00;;;;;17.49;47.20;100335.13;5118240;28;9560;-86
2023/05/04 08:14:14;;;;;;;;;7.25;6.50;;;;;17.69;47.50;100325.03;5117425;28;8970;-86
2023/05/04 08:16:42;;;;;;;;;6.50;6.50;;;;;17.87;46.91;100323.97;5117060;28;9506;-86
2023/05/04 08:19:11;;;;;;;;;10.60;9.80;;;;;18.01;46.81;100326.06;5117642;28;8846;-86
2023/05/04 08:21:39;;;;;;;;;9.00;7.00;;;;;18.18;46.81;100318.91;5116965;28;8847;-86
2023/05/04 08:24:07;;;;;;;;;9.80;9.00;;;;;18.31;46.32;100327.44;5116355;28;8878;-86
2023/05/04 08:26:35;;;;;;;;;10.00;9.00;;;;;18.43;46.47;100321.56;5116091;28;8844;-87
2023/05/04 08:29:04;;;;;;;;;9.20;9.20;;;;;18.57;46.78;100325.50;5116101;28;8838;-86
2023/05/04 08:31:32;;;;;;;;;9.40;9.00;;;;;18.68;46.34;100328.75;5116970;28;9219;-87
2023/05/04 08:34:00;;;;;;;;;9.20;7.20;;;;;18.82;46.06;100322.72;5117339;28;8862;-86
2023/05/04 08:36:29;;;;;;;;;10.40;7.00;;;;;18.99;45.38;100319.06;5117095;28;8843;-86
2023/05/04 08:38:56;;;;;;;;;8.40;6.60;;;;;19.16;45.48;100322.59;5118380;28;8986;-85
2023/05/04 08:41:24;;;;;;;;;8.40;8.40;;;;;19.32;45.67;100318.09;5119038;28;8816;-86
2023/05/04 08:43:52;;;;;;;;;7.80;7.00;;;;;19.52;45.02;100305.94;5118411;28;8924;-86
2023/05/04 08:46:20;;;;;;;;;8.20;7.20;;;;;19.73;44.89;100308.13;5118305;28;8846;-86
2023/05/04 08:48:48;;;;;;;;;9.80;9.20;;;;;19.91;44.50;100306.91;5117536;28;9505;-87
2023/05/04 08:51:16;;;;;;;;;7.40;6.80;;;;;20.02;44.57;100305.69;5117432;28;8850;-86
2023/05/04 08:53:44;;;;;;;;;2.40;2.00;;;;;20.10;44.39;100300.28;5117141;28;8888;-86
2023/05/04 08:56:12;;;;;;;;;7.00;7.00;;;;;20.21;43.82;100300.75;5116901;28;8840;-86
2023/05/04 08:58:41;;;;;;;;;7.20;7.00;;;;;20.35;44.12;100294.63;5116917;28;8864;-86
2023/05/04 09:01:09;;;;;;;;;8.40;8.40;;;;;20.47;43.55;100289.66;5117149;28;9056;-86
2023/05/04 09:03:37;;;;;;;;;8.40;7.20;;;;;20.51;43.49;100289.13;5116707;28;8909;-86
2023/05/04 09:06:04;;;;;;;;;7.60;5.00;;;;;20.62;44.00;100287.91;5116545;28;8971;-86
2023/05/04 09:08:32;;;;;;;;;6.60;6.60;;;;;20.75;43.49;100289.00;5116795;28;8856;-86
2023/05/04 09:11:00;;;;;;;;;7.00;5.80;;;;;20.80;43.27;100289.31;5117671;28;8871;-87
2023/05/04 09:13:29;;;;;;;;;7.60;7.20;;;;;20.82;43.10;100284.56;5115417;28;8843;-86
2023/05/04 09:15:57;;;;;;;;;8.00;7.00;;;;;20.88;43.35;100283.03;5115451;28;9187;-86
2023/05/04 09:18:25;;;;;;;;;8.80;7.40;;;;;20.96;42.99;100283.81;5116068;28;8858;-86
2023/05/04 09:20:53;;;;;;;;;8.00;7.60;;;;;20.98;42.60;100284.47;5114634;28;8928;-86
2023/05/04 09:23:21;;;;;;;;;5.00;5.00;;;;;20.96;43.08;100283.81;5114934;28;8855;-86
2023/05/04 09:25:49;;;;;;;;;7.00;6.60;;;;;21.05;42.46;100277.31;5115244;28;8836;-86
2023/05/04 09:28:17;;;;;;;;;7.20;7.00;;;;;21.18;42.36;100280.28;5116227;28;8847;-86
2023/05/04 09:30:44;;;;;;;;;7.20;7.00;;;;;21.35;42.48;100276.41;5116617;28;8859;-86
2023/05/04 09:33:12;;;;;;;;;7.00;6.40;;;;;21.47;42.44;100277.63;5116481;28;8859;-86
2023/05/04 09:35:41;;;;;;;;;6.60;6.60;;;;;21.70;42.01;100271.19;5117310;28;9632;-86
2023/05/04 09:38:09;;;;;;;;;8.60;8.40;;;;;21.94;41.11;100270.09;5116856;28;8840;-86
2023/05/04 09:40:37;;;;;;;;;7.80;6.00;;;;;22.22;40.68;100271.94;5116405;28;8851;-87
2023/05/04 09:43:05;;;;;;;;;9.00;8.80;;;;;22.41;40.05;100274.13;5116129;28;8927;-86
2023/05/04 09:45:33;;;;;;;;;7.80;7.80;;;;;22.64;39.67;100268.56;5114909;28;9647;-87
2023/05/04 09:48:01;;;;;;;;;8.00;7.40;;;;;22.91;39.35;100267.81;5115736;28;8870;-87
2023/05/04 09:50:32;;;;;;;;;6.00;6.00;;;;;23.19;39.71;100264.16;5116791;28;8843;-86
2023/05/04 09:52:59;;;;;;;;;8.20;8.00;;;;;23.42;39.21;100263.94;5124258;28;8893;-86
2023/05/04 09:55:27;;;;;;;;;7.40;6.00;;;;;23.79;38.98;100267.19;5120829;28;8820;-86
2023/05/04 09:57:55;;;;;;;;;5.80;5.00;;;;;24.24;38.48;100254.91;5113298;28;8971;-86
2023/05/04 10:00:24;;;;;;;;;9.40;9.00;;;;;24.69;37.84;100246.97;5112634;28;8850;-86
2023/05/04 10:02:52;;;;;;;;;7.40;7.40;;;;;25.17;37.91;100245.00;5111897;28;9535;-86
2023/05/04 10:05:21;;;;;;;;;7.00;6.60;;;;;25.61;36.74;100237.88;5112994;28;8920;-86
2023/05/04 10:07:49;;;;;;;;;5.00;5.00;;;;;26.05;36.52;100229.88;5113774;28;8850;-86
2023/05/04 10:10:17;;;;;;;;;8.40;8.40;;;;;26.35;36.52;100226.38;5112733;28;8836;-86
2023/05/04 10:12:45;;;;;;;;;4.20;4.20;;;;;26.54;36.20;100222.78;5114401;28;8858;-86
2023/05/04 10:15:13;;;;;;;;;7.40;6.00;;;;;26.83;35.52;100214.00;5115295;28;8924;-87
2023/05/04 10:17:41;;;;;;;;;6.00;6.00;;;;;27.15;35.16;100223.03;5115261;28;8848;-87
2023/05/04 10:20:09;;;;;;;;;5.80;5.80;;;;;27.47;35.11;100214.56;5113538;28;8827;-87
2023/05/04 10:22:37;;;;;;;;;7.00;6.80;;;;;27.86;34.15;100211.47;5114505;28;8843;-87
2023/05/04 10:25:06;;;;;;;;;5.00;5.00;;;;;28.24;34.34;100205.81;5115761;28;8848;-86
2023/05/04 10:27:34;;;;;;;;;7.40;7.00;;;;;28.53;34.05;100203.13;5113219;28;8848;-86
2023/05/04 10:30:02;;;;;;;;;7.60;7.40;;;;;28.67;33.54;100203.81;5114365;28;9521;-87
2023/05/04 10:32:30;;;;;;;;;8.00;8.00;;;;;28.70;33.34;100198.69;5115391;28;8971;-87
2023/05/04 10:34:58;;;;;;;;;7.00;7.00;;;;;28.84;33.56;100197.41;5116107;28;8863;-87
2023/05/04 10:37:26;;;;;;;;;5.60;4.80;;;;;28.94;32.42;100194.13;5115506;28;9106;-86
2023/05/04 10:39:54;;;;;;;;;9.00;8.00;;;;;29.00;33.10;100184.97;5114447;28;8978;-87
2023/05/04 10:42:22;;;;;;;;;4.60;4.60;;;;;29.12;32.62;100191.34;5114461;28;8840;-87
2023/05/04 10:44:50;;;;;;;;;8.80;7.00;;;;;29.21;32.80;100184.44;5114589;28;9501;-87
2023/05/04 10:47:17;;;;;;;;;6.00;6.00;;;;;29.41;32.36;100179.47;5114594;28;8909;-87
2023/05/04 10:49:45;;;;;;;;;6.60;6.60;;;;;29.68;32.41;100170.53;5114505;28;8872;-86
2023/05/04 10:52:14;;;;;;;;;9.00;8.00;;;;;29.95;31.86;100159.88;5115347;28;9505;-86
2023/05/04 10:54:43;;;;;;;;;6.40;5.00;;;;;30.12;31.82;100153.38;5114070;28;8856;-86
2023/05/04 10:57:11;;;;;;;;;5.80;5.80;;;;;30.23;31.59;100151.69;5114131;28;8830;-87
2023/05/04 10:59:39;;;;;;;;;5.60;5.60;;;;;30.35;31.40;100156.09;5112923;28;8844;-87
2023/05/04 11:02:07;;;;;;;;;6.00;6.00;;;;;30.50;31.81;100150.91;5114229;28;8839;-87
2023/05/04 11:04:36;;;;;;;;;7.40;6.00;;;;;30.67;31.12;100144.38;5113244;28;8868;-87
2023/05/04 11:07:05;;;;;;;;;7.20;7.20;;;;;30.71;31.10;100146.63;5111787;28;9485;-87
2023/05/04 11:09:33;;;;;;;;;6.20;6.00;;;;;30.74;30.94;100134.03;5111377;28;8922;-87
2023/05/04 11:12:01;;;;;;;;;7.40;6.40;;;;;30.95;30.49;100133.31;5111166;28;8835;-87
2023/05/04 11:14:29;;;;;;;;;5.80;5.20;;;;;30.94;30.25;100123.41;5111853;28;8851;-87
2023/05/04 11:16:58;;;;;;;;;5.00;5.00;;;;;31.16;30.09;100126.28;5111829;28;8835;-87
2023/05/04 11:19:25;;;;;;;;;6.00;6.00;;;;;31.43;30.04;100119.00;5111891;28;8842;-86
2023/05/04 11:21:53;;;;;;;;;6.80;6.00;;;;;31.67;30.10;100114.94;5111818;28;8824;-86
2023/05/04 11:24:21;;;;;;;;;4.80;4.80;;;;;31.86;29.47;100119.13;5113211;28;8851;-87
2023/05/04 11:26:50;;;;;;;;;7.00;7.00;;;;;31.98;28.80;100119.81;5111532;28;8843;-87
2023/05/04 11:29:18;;;;;;;;;6.00;6.00;;;;;32.03;29.43;100115.19;5110852;28;8836;-87
2023/05/04 11:31:46;;;;;;;;;6.60;6.00;;;;;32.39;29.03;100102.69;5110514;28;8868;-87
2023/05/04 11:34:14;;;;;;;;;5.00;5.00;;;;;32.61;28.44;100111.75;5116057;28;9197;-87
2023/05/04 11:36:42;;;;;;;;;7.60;7.60;;;;;32.72;28.37;100102.47;5120934;28;8950;-87
2023/05/04 11:39:10;;;;;;;;;5.00;5.00;;;;;32.54;28.88;100098.16;5112924;28;8848;-87